createdAt,value
2018-10-11T00:00:57.134Z,14.20
2018-10-11T00:03:26.968Z,14.10
2018-10-11T00:05:56.784Z,14.10
2018-10-11T00:08:27.095Z,14.00
2018-10-11T00:10:56.867Z,14.00
2018-10-11T00:13:26.684Z,14.00
2018-10-11T00:15:56.499Z,14.00
2018-10-11T00:18:26.369Z,13.90
2018-10-11T00:20:56.251Z,13.90
2018-10-11T00:23:26.432Z,13.90
2018-10-11T00:25:56.286Z,13.80
2018-10-11T00:28:27.084Z,13.80
2018-10-11T00:30:56.894Z,13.80
2018-10-11T00:33:27.011Z,13.80
2018-10-11T00:35:56.897Z,13.80
2018-10-11T00:38:26.747Z,13.80
2018-10-11T00:40:57.068Z,13.80
2018-10-11T00:43:26.893Z,13.80
2018-10-11T00:45:56.697Z,13.70
2018-10-11T00:48:26.879Z,13.70
2018-10-11T00:50:56.708Z,13.70
2018-10-11T00:53:26.669Z,13.60
2018-10-11T00:55:58.021Z,13.60
2018-10-11T00:58:27.858Z,13.60
2018-10-11T01:00:57.661Z,13.60
2018-10-11T01:03:27.857Z,13.70
2018-10-11T01:05:57.676Z,13.70
2018-10-11T01:08:27.540Z,13.70
2018-10-11T01:10:57.664Z,13.70
2018-10-11T01:13:27.494Z,13.80
2018-10-11T01:15:57.339Z,13.80
2018-10-11T01:18:27.476Z,13.70
2018-10-11T01:20:57.342Z,13.70
2018-10-11T01:23:27.215Z,13.70
2018-10-11T01:25:57.388Z,13.70
2018-10-11T01:28:27.339Z,13.70
2018-10-11T01:31:02.135Z,13.70
2018-10-11T01:33:31.968Z,13.70
2018-10-11T01:36:01.882Z,13.70
2018-10-11T01:38:31.850Z,13.70
2018-10-11T01:41:02.215Z,13.60
2018-10-11T01:43:32.084Z,13.60
2018-10-11T01:46:01.935Z,13.60
2018-10-11T01:48:31.777Z,13.50
2018-10-11T01:51:01.599Z,13.50
2018-10-11T01:53:31.755Z,13.50
2018-10-11T01:56:01.527Z,13.40
2018-10-11T01:58:31.321Z,13.40
2018-10-11T02:01:01.130Z,13.30
2018-10-11T02:03:30.875Z,13.30
2018-10-11T02:06:00.667Z,13.20
2018-10-11T02:08:30.470Z,13.20
2018-10-11T02:11:00.602Z,13.20
2018-10-11T02:13:30.399Z,13.20
2018-10-11T02:16:00.193Z,13.30
2018-10-11T02:18:29.975Z,13.30
2018-10-11T02:20:59.820Z,13.20
2018-10-11T02:23:29.891Z,13.20
2018-10-11T02:25:59.727Z,13.20
2018-10-11T02:28:29.583Z,13.20
2018-10-11T02:30:59.404Z,13.20
2018-10-11T02:33:29.190Z,13.20
2018-10-11T02:35:59.050Z,13.10
2018-10-11T02:38:29.159Z,13.10
2018-10-11T02:40:58.982Z,13.10
2018-10-11T02:43:28.788Z,13.10
2018-10-11T02:45:58.641Z,13.00
2018-10-11T02:48:28.699Z,13.10
2018-10-11T02:50:58.492Z,13.00
2018-10-11T02:53:28.371Z,13.00
2018-10-11T02:55:58.342Z,13.00
2018-10-11T02:58:38.500Z,13.00
2018-10-11T03:01:09.118Z,12.90
2018-10-11T03:03:39.246Z,12.90
2018-10-11T03:06:09.307Z,12.80
2018-10-11T03:08:39.672Z,12.80
2018-10-11T03:11:09.673Z,12.70
2018-10-11T03:13:39.489Z,12.70
2018-10-11T03:16:09.279Z,12.70
2018-10-11T03:18:39.147Z,12.70
2018-10-11T03:21:09.254Z,12.70
2018-10-11T03:23:39.262Z,12.70
2018-10-11T03:26:09.190Z,12.70
2018-10-11T03:28:39.011Z,12.70
2018-10-11T03:31:09.086Z,12.70
2018-10-11T03:33:38.893Z,12.70
2018-10-11T03:36:09.309Z,12.60
2018-10-11T03:38:39.105Z,12.60
2018-10-11T03:41:08.922Z,12.60
2018-10-11T03:43:38.986Z,12.60
2018-10-11T03:46:08.817Z,12.60
2018-10-11T03:48:38.664Z,12.70
2018-10-11T03:51:08.970Z,12.70
2018-10-11T03:53:38.734Z,12.70
2018-10-11T03:56:08.587Z,12.70
2018-10-11T03:58:38.447Z,12.70
2018-10-11T04:01:08.380Z,12.70
2018-10-11T04:03:38.225Z,12.70
2018-10-11T04:06:08.582Z,12.80
2018-10-11T04:08:38.479Z,12.70
2018-10-11T04:11:08.361Z,12.70
2018-10-11T04:13:38.622Z,12.70
2018-10-11T04:16:08.516Z,12.70
2018-10-11T04:18:38.558Z,12.60
2018-10-11T04:21:08.851Z,12.60
2018-10-11T04:23:38.675Z,12.60
2018-10-11T04:26:08.458Z,12.60
2018-10-11T04:28:38.756Z,12.60
2018-10-11T04:31:08.643Z,12.60
2018-10-11T04:33:38.481Z,12.70
2018-10-11T04:36:08.786Z,12.70
2018-10-11T04:38:38.594Z,12.70
2018-10-11T04:41:08.574Z,12.60
2018-10-11T04:43:38.912Z,12.60
2018-10-11T04:46:08.841Z,12.60
2018-10-11T04:48:38.701Z,12.50
2018-10-11T04:51:08.533Z,12.50
2018-10-11T04:53:38.540Z,12.50
2018-10-11T04:56:08.778Z,12.50
2018-10-11T04:58:38.689Z,12.40
2018-10-11T05:01:08.676Z,12.50
2018-10-11T05:03:38.684Z,12.60
2018-10-11T05:06:08.527Z,12.50
2018-10-11T05:08:38.361Z,12.50
2018-10-11T05:11:08.850Z,12.50
2018-10-11T05:13:45.694Z,12.50
2018-10-11T05:16:16.235Z,12.50
2018-10-11T05:18:52.709Z,12.50
2018-10-11T05:21:23.079Z,12.50
2018-10-11T05:23:53.036Z,12.50
2018-10-11T05:26:22.920Z,12.50
2018-10-11T05:28:53.073Z,12.50
2018-10-11T05:31:23.290Z,12.60
2018-10-11T05:33:53.882Z,12.60
2018-10-11T05:36:24.898Z,12.70
2018-10-11T05:38:54.749Z,12.70
2018-10-11T05:41:24.629Z,12.70
2018-10-11T05:43:54.865Z,12.70
2018-10-11T05:46:32.413Z,12.70
2018-10-11T05:49:03.148Z,12.70
2018-10-11T05:51:34.521Z,12.70
2018-10-11T05:54:05.079Z,12.70
2018-10-11T05:56:37.372Z,12.70
2018-10-11T05:59:08.630Z,12.70
2018-10-11T06:01:39.562Z,12.70
2018-10-11T06:04:10.626Z,12.70
2018-10-11T06:06:41.214Z,12.80
2018-10-11T06:09:12.365Z,12.80
2018-10-11T06:11:42.376Z,12.80
2018-10-11T06:14:13.687Z,12.80
2018-10-11T06:16:44.142Z,12.80
2018-10-11T06:19:15.757Z,12.80
2018-10-11T06:21:45.946Z,12.90
2018-10-11T06:24:15.843Z,12.90
2018-10-11T06:26:45.876Z,12.90
2018-10-11T06:29:15.893Z,13.00
2018-10-11T06:31:46.409Z,13.10
2018-10-11T06:34:16.454Z,13.20
2018-10-11T06:36:47.277Z,13.20
2018-10-11T06:39:17.162Z,13.20
2018-10-11T06:41:47.147Z,13.30
2018-10-11T06:44:17.509Z,13.30
2018-10-11T06:46:47.721Z,13.40
2018-10-11T06:49:17.869Z,13.50
2018-10-11T06:51:47.885Z,13.50
2018-10-11T06:54:18.009Z,13.60
2018-10-11T06:56:47.974Z,13.60
2018-10-11T06:59:17.857Z,13.70
2018-10-11T07:01:47.732Z,13.80
2018-10-11T07:04:17.583Z,13.80
2018-10-11T07:06:47.393Z,13.90
2018-10-11T07:09:17.224Z,13.90
2018-10-11T07:11:47.088Z,14.00
2018-10-11T07:14:17.339Z,14.10
2018-10-11T07:16:47.458Z,14.10
2018-10-11T07:19:17.332Z,14.20
2018-10-11T07:21:47.833Z,14.30
2018-10-11T07:24:17.641Z,14.30
2018-10-11T07:26:47.786Z,14.40
2018-10-11T07:29:17.921Z,14.50
2018-10-11T07:31:47.953Z,14.70
2018-10-11T07:34:17.814Z,14.60
2018-10-11T07:36:47.856Z,14.60
2018-10-11T07:39:17.670Z,14.80
2018-10-11T07:41:47.533Z,14.90
2018-10-11T07:44:17.675Z,14.90
2018-10-11T07:46:47.587Z,14.90
2018-10-11T07:49:17.401Z,15.10
2018-10-11T07:51:47.415Z,15.20
2018-10-11T07:54:17.341Z,15.20
2018-10-11T07:56:47.528Z,15.30
2018-10-11T07:59:17.901Z,15.40
2018-10-11T08:01:48.076Z,15.50
2018-10-11T08:04:17.938Z,15.60
2018-10-11T08:06:47.747Z,15.60
2018-10-11T08:09:17.766Z,15.70
2018-10-11T08:11:47.724Z,15.70
2018-10-11T08:14:18.510Z,15.80
2018-10-11T08:16:49.075Z,15.90
2018-10-11T08:19:19.047Z,16.00
2018-10-11T08:21:48.779Z,16.00
2018-10-11T08:24:18.655Z,16.10
2018-10-11T08:26:48.838Z,16.10
2018-10-11T08:29:18.749Z,16.20
2018-10-11T08:31:48.655Z,16.30
2018-10-11T08:34:18.489Z,16.40
2018-10-11T08:36:48.299Z,16.50
2018-10-11T08:39:18.104Z,16.60
2018-10-11T08:41:47.971Z,16.60
2018-10-11T08:44:17.998Z,16.70
2018-10-11T08:46:48.141Z,16.70
2018-10-11T08:49:18.079Z,16.80
2018-10-11T08:51:47.893Z,16.80
2018-10-11T08:54:53.353Z,16.80
2018-10-11T08:57:23.817Z,16.90
2018-10-11T08:59:53.933Z,17.00
2018-10-11T09:02:23.777Z,17.10
2018-10-11T09:04:53.621Z,17.10
2018-10-11T09:07:23.502Z,17.20
2018-10-11T09:09:53.687Z,17.20
2018-10-11T09:12:23.283Z,17.30
2018-10-11T09:14:53.137Z,17.40
2018-10-11T09:17:23.078Z,17.40
2018-10-11T09:19:53.185Z,17.40
2018-10-11T09:22:23.128Z,17.50
2018-10-11T09:24:53.025Z,17.60
2018-10-11T09:27:23.202Z,17.60
2018-10-11T09:29:53.001Z,17.60
2018-10-11T09:32:22.899Z,17.70
2018-10-11T09:34:52.713Z,17.90
2018-10-11T09:37:22.581Z,17.90
2018-10-11T09:39:52.409Z,17.90
2018-10-11T09:42:22.236Z,18.10
2018-10-11T09:44:52.374Z,18.20
2018-10-11T09:47:22.217Z,18.20
2018-10-11T09:49:52.036Z,18.20
2018-10-11T09:52:21.864Z,18.40
2018-10-11T09:54:51.746Z,18.40
2018-10-11T09:57:27.093Z,18.40
2018-10-11T09:59:57.210Z,18.40
2018-10-11T10:02:27.580Z,18.50
2018-10-11T10:04:58.964Z,18.60
2018-10-11T10:07:29.042Z,18.70
2018-10-11T10:09:58.902Z,18.70
2018-10-11T10:12:29.037Z,18.80
2018-10-11T10:14:58.885Z,18.70
2018-10-11T10:17:28.751Z,18.80
2018-10-11T10:19:58.599Z,18.80
2018-10-11T10:22:28.417Z,19.00
2018-10-11T10:24:58.516Z,19.00
2018-10-11T10:27:28.351Z,19.10
2018-10-11T10:29:58.528Z,19.20
2018-10-11T10:32:28.377Z,19.30
2018-10-11T10:34:58.173Z,19.30
2018-10-11T10:37:28.129Z,19.30
2018-10-11T10:39:58.077Z,19.30
2018-10-11T10:42:28.294Z,19.30
2018-10-11T10:44:58.144Z,19.40
2018-10-11T10:47:27.997Z,19.50
2018-10-11T10:49:58.398Z,19.70
2018-10-11T10:52:29.463Z,19.80
2018-10-11T10:54:59.387Z,19.90
2018-10-11T10:57:29.576Z,20.00
2018-10-11T10:59:59.749Z,20.00
2018-10-11T11:02:29.661Z,20.10
2018-10-11T11:04:59.469Z,20.10
2018-10-11T11:07:29.452Z,20.20
2018-10-11T11:09:59.437Z,20.20
2018-10-11T11:12:29.878Z,20.20
2018-10-11T11:14:59.693Z,20.20
2018-10-11T11:17:29.525Z,20.40
2018-10-11T11:19:59.558Z,20.50
2018-10-11T11:22:29.428Z,20.60
2018-10-11T11:24:59.307Z,20.80
2018-10-11T11:27:29.240Z,20.70
2018-10-11T11:29:59.105Z,20.70
2018-10-11T11:32:29.390Z,20.70
2018-10-11T11:34:59.216Z,20.80
2018-10-11T11:37:29.201Z,20.70
2018-10-11T11:39:59.384Z,20.80
2018-10-11T11:42:29.280Z,21.00
2018-10-11T11:44:59.093Z,21.10
2018-10-11T11:47:29.379Z,21.30
2018-10-11T11:49:59.261Z,21.20
2018-10-11T11:52:29.155Z,21.30
2018-10-11T11:54:59.317Z,21.50
2018-10-11T11:57:29.162Z,21.60
2018-10-11T11:59:58.986Z,21.60
2018-10-11T12:02:29.203Z,21.60
2018-10-11T12:04:59.087Z,21.70
2018-10-11T12:07:28.966Z,21.80
2018-10-11T12:09:59.105Z,21.80
2018-10-11T12:13:02.478Z,21.90
2018-10-11T12:15:33.197Z,22.00
2018-10-11T12:18:04.207Z,22.40
2018-10-11T12:20:35.324Z,22.60
2018-10-11T12:23:06.273Z,22.70
2018-10-11T12:25:36.425Z,23.00
2018-10-11T12:28:06.745Z,23.30
2018-10-11T12:30:36.625Z,23.50
2018-10-11T12:33:06.590Z,23.70
2018-10-11T12:35:36.826Z,23.60
2018-10-11T12:38:06.741Z,23.90
2018-10-11T12:40:36.617Z,24.20
2018-10-11T12:43:06.944Z,24.10
2018-10-11T12:45:37.702Z,24.10
2018-10-11T12:48:06.733Z,24.20
2018-10-11T12:50:37.033Z,24.50
2018-10-11T12:53:07.995Z,24.60
2018-10-11T12:55:37.878Z,24.80
2018-10-11T12:58:08.241Z,25.10
2018-10-11T13:00:38.098Z,25.40
2018-10-11T13:03:07.965Z,25.40
2018-10-11T13:05:38.093Z,25.60
2018-10-11T13:08:07.957Z,25.90
2018-10-11T13:10:37.781Z,25.80
2018-10-11T13:13:11.099Z,26.10
2018-10-11T13:15:38.041Z,26.50
2018-10-11T13:18:07.933Z,26.70
2018-10-11T13:20:38.053Z,26.90
2018-10-11T13:23:12.289Z,26.90
2018-10-11T13:25:37.825Z,27.00
2018-10-11T13:28:07.952Z,27.30
2018-10-11T13:30:37.809Z,27.50
2018-10-11T13:33:07.621Z,27.30
2018-10-11T13:35:37.438Z,27.20
2018-10-11T13:38:07.265Z,27.40
2018-10-11T13:40:37.105Z,27.30
2018-10-11T13:43:06.957Z,27.10
2018-10-11T13:45:36.797Z,27.20
2018-10-11T13:48:06.642Z,27.30
2018-10-11T13:50:36.473Z,27.70
2018-10-11T13:53:06.492Z,27.60
2018-10-11T13:55:36.291Z,27.50
2018-10-11T13:58:06.460Z,27.80
2018-10-11T14:00:36.261Z,28.00
2018-10-11T14:03:06.189Z,27.90
2018-10-11T14:05:36.049Z,27.80
2018-10-11T14:08:05.847Z,27.70
2018-10-11T14:10:36.047Z,27.50
2018-10-11T14:13:12.986Z,27.80
2018-10-11T14:15:35.731Z,28.40
2018-10-11T14:18:09.283Z,28.70
2018-10-11T14:20:35.479Z,28.50
2018-10-11T14:23:05.923Z,28.10
2018-10-11T14:25:35.786Z,28.10
2018-10-11T14:28:06.164Z,27.80
2018-10-11T14:30:36.033Z,27.90
2018-10-11T14:33:05.885Z,28.40
2018-10-11T14:36:54.956Z,28.30
2018-10-11T14:39:24.955Z,28.30
2018-10-11T14:41:55.305Z,28.30
2018-10-11T14:44:25.150Z,28.40
2018-10-11T14:46:54.989Z,28.30
2018-10-11T14:49:25.093Z,28.40
2018-10-11T14:51:54.907Z,28.40
2018-10-11T14:54:24.741Z,28.00
2018-10-11T14:56:54.569Z,28.00
2018-10-11T14:59:24.424Z,28.10
2018-10-11T15:01:54.299Z,28.20
2018-10-11T15:04:24.108Z,28.50
2018-10-11T15:06:53.949Z,28.50
2018-10-11T15:09:24.038Z,28.40
2018-10-11T15:11:53.875Z,28.60
2018-10-11T15:14:23.846Z,28.30
2018-10-11T15:16:54.224Z,27.70
2018-10-11T15:19:24.046Z,27.60
2018-10-11T15:21:53.937Z,27.70
2018-10-11T15:24:24.217Z,27.40
2018-10-11T15:26:54.100Z,27.60
2018-10-11T15:29:23.996Z,27.30
2018-10-11T15:31:54.125Z,27.50
2018-10-11T15:34:23.952Z,27.70
2018-10-11T15:36:53.832Z,27.70
2018-10-11T15:39:24.101Z,27.80
2018-10-11T15:41:53.945Z,27.80
2018-10-11T15:44:23.897Z,27.60
2018-10-11T15:46:54.147Z,27.70
2018-10-11T15:49:24.133Z,27.50
2018-10-11T15:51:54.034Z,27.00
2018-10-11T15:54:24.161Z,27.00
2018-10-11T15:56:54.018Z,26.70
2018-10-11T15:59:23.826Z,26.50
2018-10-11T16:01:54.600Z,26.20
2018-10-11T16:04:24.450Z,26.00
2018-10-11T16:06:54.341Z,25.80
2018-10-11T16:09:24.537Z,25.70
2018-10-11T16:11:54.535Z,25.20
2018-10-11T16:14:24.439Z,24.90
2018-10-11T16:16:54.535Z,24.40
2018-10-11T16:19:24.402Z,24.10
2018-10-11T16:21:54.252Z,23.50
2018-10-11T16:24:24.386Z,23.00
2018-10-11T16:26:54.186Z,22.50
2018-10-11T16:29:24.178Z,21.90
2018-10-11T16:31:54.389Z,21.50
2018-10-11T16:34:24.277Z,21.20
2018-10-11T16:36:54.154Z,20.80
2018-10-11T16:39:24.038Z,20.60
2018-10-11T16:41:54.121Z,20.40
2018-10-11T16:44:23.969Z,20.20
2018-10-11T16:46:53.819Z,20.00
2018-10-11T16:49:23.652Z,19.80
2018-10-11T16:51:53.540Z,19.60
2018-10-11T16:54:23.485Z,19.50
2018-10-11T16:56:53.657Z,19.30
2018-10-11T16:59:23.577Z,19.20
2018-10-11T17:01:55.038Z,19.00
2018-10-11T17:04:25.212Z,18.90
2018-10-11T17:06:55.465Z,18.70
2018-10-11T17:09:25.642Z,18.60
2018-10-11T17:11:55.812Z,18.60
2018-10-11T17:14:27.076Z,18.40
2018-10-11T17:16:56.985Z,18.40
2018-10-11T17:19:27.503Z,18.20
2018-10-11T17:21:58.328Z,18.20
2018-10-11T17:24:29.637Z,18.10
2018-10-11T17:27:01.208Z,18.00
2018-10-11T17:29:31.564Z,18.00
2018-10-11T17:32:02.079Z,17.90
2018-10-11T17:34:33.012Z,17.80
2018-10-11T17:37:03.256Z,17.80
2018-10-11T17:39:33.398Z,17.80
2018-10-11T17:42:03.919Z,17.60
2018-10-11T17:44:34.850Z,17.40
2018-10-11T17:47:04.714Z,17.30
2018-10-11T17:49:34.576Z,17.30
2018-10-11T17:52:04.819Z,17.20
2018-10-11T17:54:34.706Z,17.10
2018-10-11T17:57:04.611Z,17.10
2018-10-11T17:59:34.763Z,17.10
2018-10-11T18:02:04.681Z,17.00
2018-10-11T18:04:34.564Z,17.00
2018-10-11T18:07:04.684Z,17.00
2018-10-11T18:09:34.531Z,16.90
2018-10-11T18:12:04.484Z,16.80
2018-10-11T18:14:34.689Z,16.70
2018-10-11T18:17:04.744Z,16.60
2018-10-11T18:19:34.580Z,16.50
2018-10-11T18:22:04.711Z,16.50
2018-10-11T18:24:34.593Z,16.40
2018-10-11T18:27:04.446Z,16.30
2018-10-11T18:29:34.558Z,16.20
2018-10-11T18:32:04.448Z,16.10
2018-10-11T18:34:34.289Z,16.00
2018-10-11T18:37:04.472Z,16.00
2018-10-11T18:39:34.349Z,16.00
2018-10-11T18:42:04.223Z,16.10
2018-10-11T18:44:34.381Z,16.20
2018-10-11T18:47:04.277Z,16.20
2018-10-11T18:49:34.121Z,16.10
2018-10-11T18:52:04.489Z,16.00
2018-10-11T18:54:34.389Z,16.00
2018-10-11T18:57:04.295Z,15.90
2018-10-11T18:59:34.160Z,15.80
2018-10-11T19:02:04.006Z,15.80
2018-10-11T19:04:33.949Z,15.70
2018-10-11T19:07:03.821Z,15.80
2018-10-11T19:09:33.703Z,15.80
2018-10-11T19:12:03.559Z,15.70
2018-10-11T19:14:34.647Z,15.60
2018-10-11T19:17:05.527Z,15.70
2018-10-11T19:19:35.379Z,15.70
2018-10-11T19:22:05.251Z,15.60
2018-10-11T19:24:35.140Z,15.50
2018-10-11T19:27:06.786Z,15.50
2018-10-11T19:29:36.930Z,15.40
2018-10-11T19:32:06.873Z,15.40
2018-10-11T19:34:37.501Z,15.30
2018-10-11T19:37:07.356Z,15.40
2018-10-11T19:39:37.659Z,15.30
2018-10-11T19:42:09.009Z,15.30
2018-10-11T19:44:39.147Z,15.30
2018-10-11T19:47:09.092Z,15.20
2018-10-11T19:49:39.404Z,15.10
2018-10-11T19:52:09.437Z,15.20
2018-10-11T19:54:39.282Z,15.10
2018-10-11T19:57:09.413Z,15.10
2018-10-11T19:59:40.291Z,15.10
2018-10-11T20:02:10.191Z,15.10
2018-10-11T20:04:40.325Z,15.00
2018-10-11T20:07:10.205Z,14.90
2018-10-11T20:09:40.068Z,14.90
2018-10-11T20:12:10.470Z,14.90
2018-10-11T20:14:40.696Z,14.80
2018-10-11T20:17:10.551Z,14.70
2018-10-11T20:19:40.785Z,14.60
2018-10-11T20:22:11.748Z,14.60
2018-10-11T20:24:41.621Z,14.50
2018-10-11T20:27:11.885Z,14.50
2018-10-11T20:29:41.753Z,14.50
2018-10-11T20:32:11.626Z,14.60
2018-10-11T20:34:41.910Z,14.60
2018-10-11T20:37:11.760Z,14.60
2018-10-11T20:39:41.641Z,14.70
2018-10-11T20:42:11.757Z,14.70
2018-10-11T20:44:41.674Z,14.70
2018-10-11T20:47:11.540Z,14.60
2018-10-11T20:49:43.428Z,14.60
2018-10-11T20:52:13.258Z,14.60
2018-10-11T20:54:44.357Z,14.60
2018-10-11T20:57:14.541Z,14.60
2018-10-11T20:59:44.366Z,14.50
2018-10-11T21:02:14.201Z,14.60
2018-10-11T21:04:44.345Z,14.70
2018-10-11T21:07:14.193Z,14.70
2018-10-11T21:09:44.060Z,14.70
2018-10-11T21:12:14.213Z,14.80
2018-10-11T21:14:44.196Z,14.80
2018-10-11T21:17:14.225Z,14.90
2018-10-11T21:19:44.070Z,14.90
2018-10-11T21:22:13.925Z,14.90
2018-10-11T21:24:43.847Z,14.90
2018-10-11T21:27:13.737Z,14.90
2018-10-11T21:29:43.601Z,14.90
2018-10-11T21:32:13.789Z,14.90
2018-10-11T21:34:43.625Z,14.80
2018-10-11T21:37:13.495Z,14.70
2018-10-11T21:39:43.426Z,14.60
2018-10-11T21:42:13.248Z,14.60
2018-10-11T21:44:43.457Z,14.50
2018-10-11T21:47:13.265Z,14.50
2018-10-11T21:49:43.962Z,14.50
2018-10-11T21:52:13.793Z,14.60
2018-10-11T21:54:43.777Z,14.70
2018-10-11T21:57:13.593Z,14.70
2018-10-11T21:59:43.773Z,14.80
2018-10-11T22:02:13.730Z,14.70
2018-10-11T22:04:43.565Z,14.70
2018-10-11T22:07:13.872Z,14.60
2018-10-11T22:09:43.725Z,14.50
2018-10-11T22:12:13.556Z,14.40
2018-10-11T22:14:43.737Z,14.30
2018-10-11T22:17:13.598Z,14.30
2018-10-11T22:19:43.406Z,14.20
2018-10-11T22:22:13.269Z,14.10
2018-10-11T22:24:43.082Z,14.10
2018-10-11T22:27:12.965Z,14.00
2018-10-11T22:29:43.093Z,14.10
2018-10-11T22:32:12.950Z,14.00
2018-10-11T22:34:42.773Z,14.00
2018-10-11T22:37:12.891Z,14.00
2018-10-11T22:39:42.800Z,14.00
2018-10-11T22:42:12.653Z,14.00
2018-10-11T22:44:43.029Z,14.00
2018-10-11T22:47:12.887Z,14.00
2018-10-11T22:49:42.710Z,14.00
2018-10-11T22:52:12.873Z,13.90
2018-10-11T22:54:42.701Z,13.90
2018-10-11T22:57:12.524Z,14.00
2018-10-11T22:59:42.667Z,13.90
2018-10-11T23:02:12.510Z,13.90
2018-10-11T23:04:42.318Z,13.90
2018-10-11T23:07:12.441Z,13.90
2018-10-11T23:09:42.257Z,13.90
2018-10-11T23:12:12.065Z,13.80
2018-10-11T23:14:42.290Z,13.80
2018-10-11T23:17:12.208Z,13.80
2018-10-11T23:19:42.198Z,13.80
2018-10-11T23:22:12.008Z,13.70
2018-10-11T23:24:41.832Z,13.70
2018-10-11T23:27:11.692Z,13.70
2018-10-11T23:29:41.830Z,13.60
2018-10-11T23:32:11.689Z,13.60
2018-10-11T23:34:41.513Z,13.60
2018-10-11T23:37:11.353Z,13.50
2018-10-11T23:39:41.173Z,13.50
2018-10-11T23:42:11.021Z,13.50
2018-10-11T23:44:40.844Z,13.50
2018-10-11T23:47:11.298Z,13.50
2018-10-11T23:49:41.133Z,13.50
2018-10-11T23:52:10.965Z,13.50
2018-10-11T23:54:40.810Z,13.50
2018-10-11T23:57:10.903Z,13.50
2018-10-11T23:59:41.097Z,13.50
